sensor_id;sensor_type;location;lat;lon;timestamp;P1;durP1;ratioP1;P2;durP2;ratioP2
11537;SDS011;50159;49.426;11.182;2023-02-15T00:00:02;14.20;;;10.70;;
11537;SDS011;50159;49.426;11.182;2023-02-15T00:02:32;15.83;;;11.10;;
11537;SDS011;50159;49.426;11.182;2023-02-15T00:04:59;14.67;;;10.13;;
11537;SDS011;50159;49.426;11.182;2023-02-15T00:07:26;16.10;;;11.30;;
11537;SDS011;50159;49.426;11.182;2023-02-15T00:09:52;15.63;;;11.20;;
11537;SDS011;50159;49.426;11.182;2023-02-15T00:12:19;15.33;;;10.57;;
11537;SDS011;50159;49.426;11.182;2023-02-15T00:14:47;16.33;;;11.57;;
11537;SDS011;50159;49.426;11.182;2023-02-15T00:17:13;15.17;;;10.80;;
11537;SDS011;50159;49.426;11.182;2023-02-15T00:19:40;18.33;;;11.50;;
11537;SDS011;50159;49.426;11.182;2023-02-15T00:22:07;16.30;;;11.57;;
11537;SDS011;50159;49.426;11.182;2023-02-15T00:24:34;16.23;;;11.37;;
11537;SDS011;50159;49.426;11.182;2023-02-15T00:27:01;15.90;;;11.00;;
11537;SDS011;50159;49.426;11.182;2023-02-15T00:29:28;19.80;;;11.93;;
11537;SDS011;50159;49.426;11.182;2023-02-15T00:31:55;18.33;;;11.70;;
11537;SDS011;50159;49.426;11.182;2023-02-15T00:34:23;20.60;;;13.07;;
11537;SDS011;50159;49.426;11.182;2023-02-15T00:36:52;17.03;;;11.63;;
11537;SDS011;50159;49.426;11.182;2023-02-15T00:39:19;18.83;;;11.87;;
11537;SDS011;50159;49.426;11.182;2023-02-15T00:41:47;15.27;;;10.83;;
11537;SDS011;50159;49.426;11.182;2023-02-15T00:44:14;16.63;;;11.43;;
11537;SDS011;50159;49.426;11.182;2023-02-15T00:46:41;19.97;;;12.13;;
11537;SDS011;50159;49.426;11.182;2023-02-15T00:49:08;17.33;;;11.53;;
11537;SDS011;50159;49.426;11.182;2023-02-15T00:51:36;20.17;;;13.00;;
11537;SDS011;50159;49.426;11.182;2023-02-15T00:54:04;19.73;;;12.57;;
11537;SDS011;50159;49.426;11.182;2023-02-15T00:56:31;18.67;;;11.77;;
11537;SDS011;50159;49.426;11.182;2023-02-15T00:58:58;21.13;;;12.93;;
11537;SDS011;50159;49.426;11.182;2023-02-15T01:01:25;17.80;;;12.63;;
11537;SDS011;50159;49.426;11.182;2023-02-15T01:03:52;19.43;;;12.00;;
11537;SDS011;50159;49.426;11.182;2023-02-15T01:06:19;19.53;;;12.07;;
11537;SDS011;50159;49.426;11.182;2023-02-15T01:08:46;21.30;;;13.33;;
11537;SDS011;50159;49.426;11.182;2023-02-15T01:11:15;19.40;;;11.93;;
11537;SDS011;50159;49.426;11.182;2023-02-15T01:13:52;19.40;;;12.33;;
11537;SDS011;50159;49.426;11.182;2023-02-15T01:16:24;19.13;;;13.50;;
11537;SDS011;50159;49.426;11.182;2023-02-15T01:18:54;18.00;;;11.47;;
11537;SDS011;50159;49.426;11.182;2023-02-15T01:21:22;19.47;;;12.23;;
11537;SDS011;50159;49.426;11.182;2023-02-15T01:23:53;18.77;;;12.87;;
11537;SDS011;50159;49.426;11.182;2023-02-15T01:26:20;20.37;;;12.00;;
11537;SDS011;50159;49.426;11.182;2023-02-15T01:28:49;18.07;;;12.37;;
11537;SDS011;50159;49.426;11.182;2023-02-15T01:31:16;22.73;;;13.03;;
11537;SDS011;50159;49.426;11.182;2023-02-15T01:33:46;16.37;;;11.80;;
11537;SDS011;50159;49.426;11.182;2023-02-15T01:36:14;16.00;;;10.90;;
11537;SDS011;50159;49.426;11.182;2023-02-15T01:38:43;17.60;;;11.87;;
11537;SDS011;50159;49.426;11.182;2023-02-15T01:41:10;18.80;;;12.30;;
11537;SDS011;50159;49.426;11.182;2023-02-15T01:43:48;19.47;;;13.37;;
11537;SDS011;50159;49.426;11.182;2023-02-15T01:46:20;20.73;;;13.70;;
11537;SDS011;50159;49.426;11.182;2023-02-15T01:48:55;19.93;;;12.27;;
11537;SDS011;50159;49.426;11.182;2023-02-15T01:51:32;21.27;;;12.90;;
11537;SDS011;50159;49.426;11.182;2023-02-15T01:54:25;23.47;;;13.97;;
11537;SDS011;50159;49.426;11.182;2023-02-15T01:56:56;19.83;;;12.87;;
11537;SDS011;50159;49.426;11.182;2023-02-15T01:59:29;19.30;;;12.37;;
11537;SDS011;50159;49.426;11.182;2023-02-15T02:02:00;15.43;;;11.20;;
11537;SDS011;50159;49.426;11.182;2023-02-15T02:04:32;18.73;;;12.00;;
11537;SDS011;50159;49.426;11.182;2023-02-15T02:07:22;16.87;;;12.17;;
11537;SDS011;50159;49.426;11.182;2023-02-15T02:09:54;17.70;;;12.10;;
11537;SDS011;50159;49.426;11.182;2023-02-15T02:12:21;16.77;;;11.50;;
11537;SDS011;50159;49.426;11.182;2023-02-15T02:14:50;15.20;;;10.83;;
11537;SDS011;50159;49.426;11.182;2023-02-15T02:17:27;14.30;;;10.40;;
11537;SDS011;50159;49.426;11.182;2023-02-15T02:23:39;16.33;;;11.30;;
11537;SDS011;50159;49.426;11.182;2023-02-15T02:30:09;17.13;;;12.07;;
11537;SDS011;50159;49.426;11.182;2023-02-15T02:39:00;13.70;;;10.57;;
11537;SDS011;50159;49.426;11.182;2023-02-15T02:42:00;17.80;;;10.80;;
11537;SDS011;50159;49.426;11.182;2023-02-15T02:44:43;18.57;;;11.97;;
11537;SDS011;50159;49.426;11.182;2023-02-15T02:47:19;16.30;;;10.97;;
11537;SDS011;50159;49.426;11.182;2023-02-15T02:49:52;16.00;;;10.27;;
11537;SDS011;50159;49.426;11.182;2023-02-15T02:52:35;17.20;;;11.50;;
11537;SDS011;50159;49.426;11.182;2023-02-15T02:58:20;15.67;;;10.53;;
11537;SDS011;50159;49.426;11.182;2023-02-15T03:01:13;20.47;;;12.13;;
11537;SDS011;50159;49.426;11.182;2023-02-15T03:03:49;16.93;;;11.70;;
11537;SDS011;50159;49.426;11.182;2023-02-15T03:06:23;16.33;;;11.43;;
11537;SDS011;50159;49.426;11.182;2023-02-15T03:09:10;21.80;;;14.27;;
11537;SDS011;50159;49.426;11.182;2023-02-15T03:11:46;20.67;;;12.97;;
11537;SDS011;50159;49.426;11.182;2023-02-15T03:14:14;19.87;;;12.93;;
11537;SDS011;50159;49.426;11.182;2023-02-15T03:16:46;19.40;;;12.83;;
11537;SDS011;50159;49.426;11.182;2023-02-15T03:19:33;24.23;;;13.23;;
11537;SDS011;50159;49.426;11.182;2023-02-15T03:22:04;21.43;;;13.97;;
11537;SDS011;50159;49.426;11.182;2023-02-15T03:24:44;23.97;;;15.07;;
11537;SDS011;50159;49.426;11.182;2023-02-15T03:27:21;21.77;;;14.00;;
11537;SDS011;50159;49.426;11.182;2023-02-15T03:29:55;21.83;;;14.27;;
11537;SDS011;50159;49.426;11.182;2023-02-15T03:32:25;21.57;;;14.73;;
11537;SDS011;50159;49.426;11.182;2023-02-15T03:34:57;20.77;;;13.33;;
11537;SDS011;50159;49.426;11.182;2023-02-15T03:37:32;19.57;;;13.60;;
11537;SDS011;50159;49.426;11.182;2023-02-15T03:40:10;18.00;;;12.37;;
11537;SDS011;50159;49.426;11.182;2023-02-15T03:43:29;18.33;;;11.93;;
11537;SDS011;50159;49.426;11.182;2023-02-15T03:45:52;18.23;;;11.50;;
11537;SDS011;50159;49.426;11.182;2023-02-15T03:48:27;15.97;;;11.13;;
11537;SDS011;50159;49.426;11.182;2023-02-15T03:51:04;16.97;;;11.20;;
11537;SDS011;50159;49.426;11.182;2023-02-15T03:53:56;16.80;;;11.73;;
11537;SDS011;50159;49.426;11.182;2023-02-15T03:56:25;23.40;;;13.03;;
11537;SDS011;50159;49.426;11.182;2023-02-15T03:58:52;18.87;;;12.47;;
11537;SDS011;50159;49.426;11.182;2023-02-15T04:01:39;19.07;;;11.50;;
11537;SDS011;50159;49.426;11.182;2023-02-15T04:04:37;21.80;;;13.47;;
11537;SDS011;50159;49.426;11.182;2023-02-15T04:07:12;21.73;;;13.83;;
11537;SDS011;50159;49.426;11.182;2023-02-15T04:09:39;20.63;;;12.77;;
11537;SDS011;50159;49.426;11.182;2023-02-15T04:12:24;19.83;;;12.73;;
11537;SDS011;50159;49.426;11.182;2023-02-15T04:14:51;18.40;;;12.37;;
11537;SDS011;50159;49.426;11.182;2023-02-15T04:17:37;20.53;;;12.93;;
11537;SDS011;50159;49.426;11.182;2023-02-15T04:20:04;19.90;;;13.27;;
11537;SDS011;50159;49.426;11.182;2023-02-15T04:22:51;19.07;;;11.03;;
11537;SDS011;50159;49.426;11.182;2023-02-15T04:25:36;15.83;;;11.23;;
11537;SDS011;50159;49.426;11.182;2023-02-15T04:28:03;20.50;;;11.67;;
11537;SDS011;50159;49.426;11.182;2023-02-15T04:30:30;15.83;;;10.97;;
11537;SDS011;50159;49.426;11.182;2023-02-15T04:32:56;17.47;;;11.10;;
11537;SDS011;50159;49.426;11.182;2023-02-15T04:35:23;18.17;;;11.73;;
11537;SDS011;50159;49.426;11.182;2023-02-15T04:37:50;19.60;;;12.17;;
11537;SDS011;50159;49.426;11.182;2023-02-15T04:40:17;18.93;;;11.53;;
11537;SDS011;50159;49.426;11.182;2023-02-15T04:42:47;20.30;;;12.43;;
11537;SDS011;50159;49.426;11.182;2023-02-15T04:45:15;15.70;;;11.03;;
11537;SDS011;50159;49.426;11.182;2023-02-15T04:47:43;17.77;;;12.10;;
11537;SDS011;50159;49.426;11.182;2023-02-15T04:50:10;18.30;;;11.67;;
11537;SDS011;50159;49.426;11.182;2023-02-15T04:52:37;16.87;;;11.93;;
11537;SDS011;50159;49.426;11.182;2023-02-15T04:55:04;17.07;;;11.73;;
11537;SDS011;50159;49.426;11.182;2023-02-15T04:57:31;17.93;;;11.63;;
11537;SDS011;50159;49.426;11.182;2023-02-15T04:59:58;18.60;;;11.67;;
11537;SDS011;50159;49.426;11.182;2023-02-15T05:02:25;17.10;;;10.57;;
11537;SDS011;50159;49.426;11.182;2023-02-15T05:04:52;17.00;;;11.37;;
11537;SDS011;50159;49.426;11.182;2023-02-15T05:07:18;16.03;;;11.17;;
11537;SDS011;50159;49.426;11.182;2023-02-15T05:09:46;15.67;;;11.33;;
11537;SDS011;50159;49.426;11.182;2023-02-15T05:12:13;16.63;;;11.23;;
11537;SDS011;50159;49.426;11.182;2023-02-15T05:14:40;17.93;;;12.80;;
11537;SDS011;50159;49.426;11.182;2023-02-15T05:17:07;19.00;;;12.67;;
11537;SDS011;50159;49.426;11.182;2023-02-15T05:19:33;16.57;;;11.90;;
11537;SDS011;50159;49.426;11.182;2023-02-15T05:22:00;18.03;;;12.27;;
11537;SDS011;50159;49.426;11.182;2023-02-15T05:24:27;19.27;;;12.37;;
11537;SDS011;50159;49.426;11.182;2023-02-15T05:27:12;15.43;;;11.23;;
11537;SDS011;50159;49.426;11.182;2023-02-15T05:29:58;16.93;;;12.03;;
11537;SDS011;50159;49.426;11.182;2023-02-15T05:32:25;19.50;;;12.50;;
11537;SDS011;50159;49.426;11.182;2023-02-15T05:34:52;20.53;;;12.10;;
11537;SDS011;50159;49.426;11.182;2023-02-15T05:37:19;21.43;;;12.10;;
11537;SDS011;50159;49.426;11.182;2023-02-15T05:39:45;20.73;;;12.23;;
11537;SDS011;50159;49.426;11.182;2023-02-15T05:42:12;15.57;;;12.07;;
11537;SDS011;50159;49.426;11.182;2023-02-15T05:44:39;18.13;;;12.00;;
11537;SDS011;50159;49.426;11.182;2023-02-15T05:47:06;16.67;;;11.83;;
11537;SDS011;50159;49.426;11.182;2023-02-15T05:49:33;17.73;;;12.80;;
11537;SDS011;50159;49.426;11.182;2023-02-15T05:52:00;17.03;;;11.93;;
11537;SDS011;50159;49.426;11.182;2023-02-15T05:54:27;18.63;;;12.83;;
11537;SDS011;50159;49.426;11.182;2023-02-15T05:56:55;19.57;;;13.10;;
11537;SDS011;50159;49.426;11.182;2023-02-15T05:59:22;18.07;;;11.73;;
11537;SDS011;50159;49.426;11.182;2023-02-15T06:01:49;16.73;;;12.07;;
11537;SDS011;50159;49.426;11.182;2023-02-15T06:04:15;16.50;;;12.23;;
11537;SDS011;50159;49.426;11.182;2023-02-15T06:06:42;18.10;;;11.73;;
11537;SDS011;50159;49.426;11.182;2023-02-15T06:09:10;18.57;;;12.63;;
11537;SDS011;50159;49.426;11.182;2023-02-15T06:11:38;21.30;;;13.57;;
11537;SDS011;50159;49.426;11.182;2023-02-15T06:14:05;17.37;;;12.10;;
11537;SDS011;50159;49.426;11.182;2023-02-15T06:16:32;14.43;;;10.33;;
11537;SDS011;50159;49.426;11.182;2023-02-15T06:18:59;22.40;;;12.37;;
11537;SDS011;50159;49.426;11.182;2023-02-15T06:21:27;21.83;;;13.13;;
11537;SDS011;50159;49.426;11.182;2023-02-15T06:23:55;21.13;;;13.33;;
11537;SDS011;50159;49.426;11.182;2023-02-15T06:26:22;20.67;;;12.93;;
11537;SDS011;50159;49.426;11.182;2023-02-15T06:28:48;19.33;;;11.60;;
11537;SDS011;50159;49.426;11.182;2023-02-15T06:31:15;26.73;;;13.60;;
11537;SDS011;50159;49.426;11.182;2023-02-15T06:33:42;20.97;;;12.80;;
11537;SDS011;50159;49.426;11.182;2023-02-15T06:36:09;21.80;;;13.57;;
11537;SDS011;50159;49.426;11.182;2023-02-15T06:38:36;21.83;;;13.63;;
11537;SDS011;50159;49.426;11.182;2023-02-15T06:41:03;19.50;;;13.10;;
11537;SDS011;50159;49.426;11.182;2023-02-15T06:43:29;22.17;;;13.13;;
11537;SDS011;50159;49.426;11.182;2023-02-15T06:45:56;21.00;;;13.70;;
11537;SDS011;50159;49.426;11.182;2023-02-15T06:48:23;18.97;;;12.23;;
11537;SDS011;50159;49.426;11.182;2023-02-15T06:50:50;18.37;;;12.67;;
11537;SDS011;50159;49.426;11.182;2023-02-15T06:53:16;19.73;;;12.90;;
11537;SDS011;50159;49.426;11.182;2023-02-15T06:55:43;21.07;;;13.63;;
11537;SDS011;50159;49.426;11.182;2023-02-15T06:58:10;22.77;;;13.97;;
11537;SDS011;50159;49.426;11.182;2023-02-15T07:00:37;23.80;;;14.80;;
11537;SDS011;50159;49.426;11.182;2023-02-15T07:03:04;20.73;;;13.47;;
11537;SDS011;50159;49.426;11.182;2023-02-15T07:05:32;22.10;;;13.77;;
11537;SDS011;50159;49.426;11.182;2023-02-15T07:08:00;23.57;;;14.47;;
11537;SDS011;50159;49.426;11.182;2023-02-15T07:10:27;23.57;;;13.53;;
11537;SDS011;50159;49.426;11.182;2023-02-15T07:12:54;20.10;;;13.77;;
11537;SDS011;50159;49.426;11.182;2023-02-15T07:15:21;23.47;;;13.97;;
11537;SDS011;50159;49.426;11.182;2023-02-15T07:17:48;21.57;;;13.20;;
11537;SDS011;50159;49.426;11.182;2023-02-15T07:20:17;17.53;;;11.83;;
11537;SDS011;50159;49.426;11.182;2023-02-15T07:22:46;19.57;;;13.37;;
11537;SDS011;50159;49.426;11.182;2023-02-15T07:25:14;22.43;;;14.20;;
11537;SDS011;50159;49.426;11.182;2023-02-15T07:27:42;17.17;;;12.60;;
11537;SDS011;50159;49.426;11.182;2023-02-15T07:30:11;20.73;;;13.47;;
11537;SDS011;50159;49.426;11.182;2023-02-15T07:32:41;20.80;;;14.63;;
11537;SDS011;50159;49.426;11.182;2023-02-15T07:35:30;19.03;;;12.07;;
11537;SDS011;50159;49.426;11.182;2023-02-15T07:37:57;15.60;;;11.47;;
11537;SDS011;50159;49.426;11.182;2023-02-15T07:40:23;20.13;;;12.97;;
11537;SDS011;50159;49.426;11.182;2023-02-15T07:42:51;21.23;;;12.57;;
11537;SDS011;50159;49.426;11.182;2023-02-15T07:45:20;17.90;;;11.77;;
11537;SDS011;50159;49.426;11.182;2023-02-15T07:47:47;17.20;;;10.63;;
11537;SDS011;50159;49.426;11.182;2023-02-15T07:50:14;18.63;;;12.33;;
11537;SDS011;50159;49.426;11.182;2023-02-15T07:52:41;18.27;;;11.63;;
11537;SDS011;50159;49.426;11.182;2023-02-15T07:55:08;19.23;;;13.27;;
11537;SDS011;50159;49.426;11.182;2023-02-15T07:57:41;17.73;;;12.27;;
11537;SDS011;50159;49.426;11.182;2023-02-15T08:00:12;18.30;;;12.50;;
11537;SDS011;50159;49.426;11.182;2023-02-15T08:02:41;20.00;;;12.80;;
11537;SDS011;50159;49.426;11.182;2023-02-15T08:05:13;15.87;;;11.77;;
11537;SDS011;50159;49.426;11.182;2023-02-15T08:07:42;16.60;;;11.00;;
11537;SDS011;50159;49.426;11.182;2023-02-15T08:10:09;16.07;;;11.13;;
11537;SDS011;50159;49.426;11.182;2023-02-15T08:12:56;13.90;;;10.33;;
11537;SDS011;50159;49.426;11.182;2023-02-15T08:15:23;15.63;;;11.70;;
11537;SDS011;50159;49.426;11.182;2023-02-15T08:17:49;14.80;;;9.57;;
11537;SDS011;50159;49.426;11.182;2023-02-15T08:20:16;15.87;;;11.07;;
11537;SDS011;50159;49.426;11.182;2023-02-15T08:22:43;14.20;;;10.23;;
11537;SDS011;50159;49.426;11.182;2023-02-15T08:25:10;13.53;;;9.60;;
11537;SDS011;50159;49.426;11.182;2023-02-15T08:27:37;13.50;;;10.17;;
11537;SDS011;50159;49.426;11.182;2023-02-15T08:30:04;10.77;;;8.37;;
11537;SDS011;50159;49.426;11.182;2023-02-15T08:32:31;11.97;;;9.47;;
11537;SDS011;50159;49.426;11.182;2023-02-15T08:34:58;10.87;;;9.13;;
11537;SDS011;50159;49.426;11.182;2023-02-15T08:37:25;9.83;;;8.70;;
11537;SDS011;50159;49.426;11.182;2023-02-15T08:39:52;9.00;;;7.87;;
11537;SDS011;50159;49.426;11.182;2023-02-15T08:42:18;14.70;;;10.47;;
11537;SDS011;50159;49.426;11.182;2023-02-15T08:44:46;14.63;;;11.35;;
11537;SDS011;50159;49.426;11.182;2023-02-15T08:47:16;11.73;;;9.47;;
11537;SDS011;50159;49.426;11.182;2023-02-15T08:49:43;11.00;;;8.17;;
11537;SDS011;50159;49.426;11.182;2023-02-15T08:52:09;13.23;;;9.07;;
11537;SDS011;50159;49.426;11.182;2023-02-15T08:54:36;11.70;;;9.13;;
11537;SDS011;50159;49.426;11.182;2023-02-15T08:57:03;11.53;;;9.17;;
11537;SDS011;50159;49.426;11.182;2023-02-15T08:59:30;11.33;;;8.70;;
11537;SDS011;50159;49.426;11.182;2023-02-15T09:01:56;12.47;;;9.47;;
11537;SDS011;50159;49.426;11.182;2023-02-15T09:04:23;10.10;;;7.93;;
11537;SDS011;50159;49.426;11.182;2023-02-15T09:06:50;15.40;;;9.33;;
11537;SDS011;50159;49.426;11.182;2023-02-15T09:09:18;11.43;;;9.38;;
11537;SDS011;50159;49.426;11.182;2023-02-15T09:11:47;10.90;;;8.77;;
11537;SDS011;50159;49.426;11.182;2023-02-15T09:14:23;14.47;;;8.80;;
11537;SDS011;50159;49.426;11.182;2023-02-15T09:16:52;11.93;;;9.50;;
11537;SDS011;50159;49.426;11.182;2023-02-15T09:19:20;14.00;;;10.93;;
11537;SDS011;50159;49.426;11.182;2023-02-15T09:21:49;12.53;;;9.97;;
11537;SDS011;50159;49.426;11.182;2023-02-15T09:24:16;13.37;;;9.53;;
11537;SDS011;50159;49.426;11.182;2023-02-15T09:26:44;12.97;;;9.53;;
11537;SDS011;50159;49.426;11.182;2023-02-15T09:29:13;12.90;;;9.33;;
11537;SDS011;50159;49.426;11.182;2023-02-15T09:31:43;12.23;;;9.97;;
11537;SDS011;50159;49.426;11.182;2023-02-15T09:34:16;11.30;;;9.60;;
11537;SDS011;50159;49.426;11.182;2023-02-15T09:36:46;12.20;;;9.27;;
11537;SDS011;50159;49.426;11.182;2023-02-15T09:39:18;13.40;;;9.70;;
11537;SDS011;50159;49.426;11.182;2023-02-15T09:59:43;10.27;;;7.70;;
11537;SDS011;50159;49.426;11.182;2023-02-15T10:05:46;11.97;;;9.63;;
11537;SDS011;50159;49.426;11.182;2023-02-15T10:08:32;9.83;;;8.20;;
11537;SDS011;50159;49.426;11.182;2023-02-15T10:14:47;12.23;;;8.87;;
11537;SDS011;50159;49.426;11.182;2023-02-15T10:20:30;13.27;;;10.27;;
11537;SDS011;50159;49.426;11.182;2023-02-15T10:26:45;13.43;;;10.32;;
11537;SDS011;50159;49.426;11.182;2023-02-15T10:29:31;15.27;;;10.27;;
11537;SDS011;50159;49.426;11.182;2023-02-15T10:35:35;14.70;;;10.70;;
11537;SDS011;50159;49.426;11.182;2023-02-15T10:38:13;14.70;;;9.63;;
11537;SDS011;50159;49.426;11.182;2023-02-15T11:01:59;12.97;;;9.70;;
11537;SDS011;50159;49.426;11.182;2023-02-15T11:07:32;14.37;;;9.03;;
11537;SDS011;50159;49.426;11.182;2023-02-15T11:13:11;12.57;;;9.17;;
11537;SDS011;50159;49.426;11.182;2023-02-15T11:15:56;12.27;;;9.73;;
11537;SDS011;50159;49.426;11.182;2023-02-15T11:19:12;13.17;;;9.80;;
11537;SDS011;50159;49.426;11.182;2023-02-15T11:21:28;10.88;;;9.77;;
11537;SDS011;50159;49.426;11.182;2023-02-15T11:24:10;10.80;;;9.10;;
11537;SDS011;50159;49.426;11.182;2023-02-15T11:26:49;13.33;;;10.80;;
11537;SDS011;50159;49.426;11.182;2023-02-15T11:29:32;15.50;;;10.00;;
11537;SDS011;50159;49.426;11.182;2023-02-15T11:32:39;12.02;;;10.23;;
11537;SDS011;50159;49.426;11.182;2023-02-15T11:37:40;10.80;;;9.00;;
11537;SDS011;50159;49.426;11.182;2023-02-15T11:41:29;10.83;;;9.37;;
11537;SDS011;50159;49.426;11.182;2023-02-15T11:43:49;9.70;;;8.70;;
11537;SDS011;50159;49.426;11.182;2023-02-15T11:46:31;9.43;;;8.43;;
11537;SDS011;50159;49.426;11.182;2023-02-15T11:48:58;11.43;;;8.73;;
11537;SDS011;50159;49.426;11.182;2023-02-15T11:51:25;10.43;;;8.50;;
11537;SDS011;50159;49.426;11.182;2023-02-15T11:53:54;11.30;;;8.97;;
11537;SDS011;50159;49.426;11.182;2023-02-15T11:56:23;11.00;;;9.20;;
11537;SDS011;50159;49.426;11.182;2023-02-15T11:58:58;13.07;;;10.40;;
11537;SDS011;50159;49.426;11.182;2023-02-15T12:01:35;12.53;;;9.80;;
11537;SDS011;50159;49.426;11.182;2023-02-15T12:04:25;13.70;;;10.50;;
11537;SDS011;50159;49.426;11.182;2023-02-15T12:07:25;10.70;;;9.30;;
11537;SDS011;50159;49.426;11.182;2023-02-15T12:10:10;12.73;;;10.07;;
11537;SDS011;50159;49.426;11.182;2023-02-15T12:15:44;11.80;;;9.00;;
11537;SDS011;50159;49.426;11.182;2023-02-15T12:18:30;11.48;;;10.15;;
11537;SDS011;50159;49.426;11.182;2023-02-15T12:21:03;12.20;;;9.63;;
11537;SDS011;50159;49.426;11.182;2023-02-15T12:23:47;13.67;;;10.90;;
11537;SDS011;50159;49.426;11.182;2023-02-15T12:26:25;11.97;;;9.30;;
11537;SDS011;50159;49.426;11.182;2023-02-15T12:29:05;13.70;;;10.13;;
11537;SDS011;50159;49.426;11.182;2023-02-15T12:31:46;14.70;;;10.53;;
11537;SDS011;50159;49.426;11.182;2023-02-15T12:34:20;14.70;;;11.60;;
11537;SDS011;50159;49.426;11.182;2023-02-15T12:36:53;14.03;;;11.13;;
11537;SDS011;50159;49.426;11.182;2023-02-15T12:39:26;15.03;;;11.87;;
11537;SDS011;50159;49.426;11.182;2023-02-15T12:44:53;21.40;;;12.57;;
11537;SDS011;50159;49.426;11.182;2023-02-15T12:47:21;16.67;;;12.20;;
11537;SDS011;50159;49.426;11.182;2023-02-15T12:50:05;17.50;;;12.70;;
11537;SDS011;50159;49.426;11.182;2023-02-15T12:52:50;17.43;;;12.47;;
11537;SDS011;50159;49.426;11.182;2023-02-15T12:55:52;20.17;;;12.17;;
11537;SDS011;50159;49.426;11.182;2023-02-15T12:58:26;23.27;;;13.57;;
11537;SDS011;50159;49.426;11.182;2023-02-15T13:03:37;18.60;;;13.53;;
11537;SDS011;50159;49.426;11.182;2023-02-15T13:06:16;17.57;;;13.60;;
11537;SDS011;50159;49.426;11.182;2023-02-15T13:08:46;19.80;;;14.13;;
11537;SDS011;50159;49.426;11.182;2023-02-15T13:11:28;21.07;;;14.80;;
11537;SDS011;50159;49.426;11.182;2023-02-15T13:14:01;22.57;;;15.67;;
11537;SDS011;50159;49.426;11.182;2023-02-15T13:16:41;20.30;;;14.93;;
11537;SDS011;50159;49.426;11.182;2023-02-15T13:19:13;24.43;;;16.17;;
11537;SDS011;50159;49.426;11.182;2023-02-15T13:21:47;20.50;;;14.70;;
11537;SDS011;50159;49.426;11.182;2023-02-15T13:26:52;21.10;;;16.23;;
11537;SDS011;50159;49.426;11.182;2023-02-15T13:29:42;20.30;;;14.53;;
11537;SDS011;50159;49.426;11.182;2023-02-15T13:35:13;21.80;;;15.83;;
11537;SDS011;50159;49.426;11.182;2023-02-15T13:37:59;23.30;;;17.30;;
11537;SDS011;50159;49.426;11.182;2023-02-15T13:40:45;22.77;;;16.07;;
11537;SDS011;50159;49.426;11.182;2023-02-15T13:43:58;22.97;;;17.13;;
11537;SDS011;50159;49.426;11.182;2023-02-15T13:46:39;24.13;;;15.50;;
11537;SDS011;50159;49.426;11.182;2023-02-15T13:49:19;21.30;;;15.47;;
11537;SDS011;50159;49.426;11.182;2023-02-15T13:52:40;21.73;;;16.27;;
11537;SDS011;50159;49.426;11.182;2023-02-15T13:56:07;22.47;;;16.93;;
11537;SDS011;50159;49.426;11.182;2023-02-15T14:01:41;24.83;;;16.40;;
11537;SDS011;50159;49.426;11.182;2023-02-15T14:10:28;24.60;;;14.57;;
11537;SDS011;50159;49.426;11.182;2023-02-15T14:16:41;22.13;;;14.00;;
11537;SDS011;50159;49.426;11.182;2023-02-15T14:23:11;18.50;;;13.53;;
11537;SDS011;50159;49.426;11.182;2023-02-15T14:26:32;16.90;;;14.27;;
11537;SDS011;50159;49.426;11.182;2023-02-15T14:29:47;15.13;;;12.80;;
11537;SDS011;50159;49.426;11.182;2023-02-15T14:35:03;15.53;;;12.13;;
11537;SDS011;50159;49.426;11.182;2023-02-15T14:37:41;14.80;;;12.43;;
11537;SDS011;50159;49.426;11.182;2023-02-15T14:49:10;15.50;;;13.03;;
11537;SDS011;50159;49.426;11.182;2023-02-15T14:51:54;15.90;;;12.63;;
11537;SDS011;50159;49.426;11.182;2023-02-15T15:04:37;18.27;;;14.43;;
11537;SDS011;50159;49.426;11.182;2023-02-15T15:07:36;22.00;;;15.67;;
11537;SDS011;50159;49.426;11.182;2023-02-15T15:12:43;20.20;;;16.92;;
11537;SDS011;50159;49.426;11.182;2023-02-15T15:34:16;25.03;;;17.57;;
11537;SDS011;50159;49.426;11.182;2023-02-15T15:37:09;26.57;;;18.00;;
11537;SDS011;50159;49.426;11.182;2023-02-15T15:40:00;27.63;;;18.57;;
11537;SDS011;50159;49.426;11.182;2023-02-15T15:43:30;26.07;;;17.30;;
11537;SDS011;50159;49.426;11.182;2023-02-15T15:46:22;25.67;;;16.90;;
11537;SDS011;50159;49.426;11.182;2023-02-15T15:49:17;27.23;;;17.87;;
11537;SDS011;50159;49.426;11.182;2023-02-15T15:51:47;24.10;;;16.93;;
11537;SDS011;50159;49.426;11.182;2023-02-15T15:56:51;24.40;;;16.00;;
11537;SDS011;50159;49.426;11.182;2023-02-15T15:59:33;28.33;;;17.47;;
11537;SDS011;50159;49.426;11.182;2023-02-15T16:02:04;21.83;;;15.77;;
11537;SDS011;50159;49.426;11.182;2023-02-15T16:04:34;34.40;;;20.40;;
11537;SDS011;50159;49.426;11.182;2023-02-15T16:07:16;29.07;;;18.20;;
11537;SDS011;50159;49.426;11.182;2023-02-15T16:09:55;27.37;;;18.77;;
11537;SDS011;50159;49.426;11.182;2023-02-15T16:12:28;26.63;;;17.30;;
11537;SDS011;50159;49.426;11.182;2023-02-15T16:15:00;28.57;;;17.17;;
11537;SDS011;50159;49.426;11.182;2023-02-15T16:17:40;25.10;;;15.97;;
11537;SDS011;50159;49.426;11.182;2023-02-15T16:20:18;22.63;;;16.17;;
11537;SDS011;50159;49.426;11.182;2023-02-15T16:22:48;29.50;;;18.67;;
11537;SDS011;50159;49.426;11.182;2023-02-15T16:25:41;26.67;;;17.93;;
11537;SDS011;50159;49.426;11.182;2023-02-15T16:28:36;30.60;;;18.27;;
11537;SDS011;50159;49.426;11.182;2023-02-15T16:31:11;27.53;;;17.87;;
11537;SDS011;50159;49.426;11.182;2023-02-15T16:33:41;27.90;;;18.63;;
11537;SDS011;50159;49.426;11.182;2023-02-15T16:36:11;32.50;;;20.77;;
11537;SDS011;50159;49.426;11.182;2023-02-15T16:41:25;35.27;;;20.03;;
11537;SDS011;50159;49.426;11.182;2023-02-15T16:43:56;33.20;;;20.40;;
11537;SDS011;50159;49.426;11.182;2023-02-15T16:46:41;36.17;;;20.57;;
11537;SDS011;50159;49.426;11.182;2023-02-15T16:49:15;41.60;;;22.93;;
11537;SDS011;50159;49.426;11.182;2023-02-15T16:52:21;44.30;;;25.27;;
11537;SDS011;50159;49.426;11.182;2023-02-15T16:54:48;47.17;;;26.80;;
11537;SDS011;50159;49.426;11.182;2023-02-15T16:57:24;47.00;;;24.97;;
11537;SDS011;50159;49.426;11.182;2023-02-15T17:00:00;44.67;;;24.37;;
11537;SDS011;50159;49.426;11.182;2023-02-15T17:02:32;44.70;;;24.50;;
11537;SDS011;50159;49.426;11.182;2023-02-15T17:05:21;51.53;;;26.60;;
11537;SDS011;50159;49.426;11.182;2023-02-15T17:10:42;48.33;;;25.20;;
11537;SDS011;50159;49.426;11.182;2023-02-15T17:13:28;47.83;;;24.80;;
11537;SDS011;50159;49.426;11.182;2023-02-15T17:21:09;57.07;;;26.67;;
11537;SDS011;50159;49.426;11.182;2023-02-15T17:23:46;52.30;;;26.67;;
11537;SDS011;50159;49.426;11.182;2023-02-15T17:29:02;49.50;;;23.37;;
11537;SDS011;50159;49.426;11.182;2023-02-15T17:31:56;40.77;;;23.67;;
11537;SDS011;50159;49.426;11.182;2023-02-15T17:34:40;45.87;;;23.17;;
11537;SDS011;50159;49.426;11.182;2023-02-15T17:39:54;47.60;;;24.23;;
11537;SDS011;50159;49.426;11.182;2023-02-15T17:42:24;51.40;;;27.07;;
11537;SDS011;50159;49.426;11.182;2023-02-15T17:44:51;52.03;;;25.50;;